sensor_id;sensor_type;location;lat;lon;timestamp;P1;durP1;ratioP1;P2;durP2;ratioP2
15104;SDS011;7653;48.994;9.212;2023-10-31T00:01:09;2.53;;;0.80;;
15104;SDS011;7653;48.994;9.212;2023-10-31T00:06:54;2.20;;;0.87;;
15104;SDS011;7653;48.994;9.212;2023-10-31T00:10:02;1.20;;;0.50;;
15104;SDS011;7653;48.994;9.212;2023-10-31T00:18:52;1.43;;;0.40;;
15104;SDS011;7653;48.994;9.212;2023-10-31T00:21:56;0.40;;;0.40;;
15104;SDS011;7653;48.994;9.212;2023-10-31T00:47:45;0.33;;;0.33;;
15104;SDS011;7653;48.994;9.212;2023-10-31T00:50:59;0.77;;;0.43;;
15104;SDS011;7653;48.994;9.212;2023-10-31T00:53:55;0.63;;;0.37;;
15104;SDS011;7653;48.994;9.212;2023-10-31T00:57:21;0.23;;;0.23;;
15104;SDS011;7653;48.994;9.212;2023-10-31T01:00:15;0.83;;;0.20;;
15104;SDS011;7653;48.994;9.212;2023-10-31T01:09:39;0.50;;;0.50;;
15104;SDS011;7653;48.994;9.212;2023-10-31T01:12:28;0.50;;;0.40;;
15104;SDS011;7653;48.994;9.212;2023-10-31T01:18:49;1.87;;;0.37;;
15104;SDS011;7653;48.994;9.212;2023-10-31T01:21:38;1.80;;;0.43;;
15104;SDS011;7653;48.994;9.212;2023-10-31T01:24:36;0.83;;;0.50;;
15104;SDS011;7653;48.994;9.212;2023-10-31T01:27:32;0.73;;;0.40;;
15104;SDS011;7653;48.994;9.212;2023-10-31T01:33:40;0.30;;;0.30;;
15104;SDS011;7653;48.994;9.212;2023-10-31T01:36:41;0.40;;;0.40;;
15104;SDS011;7653;48.994;9.212;2023-10-31T01:42:33;1.10;;;0.50;;
15104;SDS011;7653;48.994;9.212;2023-10-31T01:45:44;0.50;;;0.50;;
15104;SDS011;7653;48.994;9.212;2023-10-31T01:48:43;0.27;;;0.23;;
15104;SDS011;7653;48.994;9.212;2023-10-31T01:51:55;1.93;;;0.43;;
15104;SDS011;7653;48.994;9.212;2023-10-31T01:54:54;0.43;;;0.43;;
15104;SDS011;7653;48.994;9.212;2023-10-31T01:58:05;0.97;;;0.53;;
15104;SDS011;7653;48.994;9.212;2023-10-31T02:07:27;1.27;;;0.80;;
15104;SDS011;7653;48.994;9.212;2023-10-31T02:13:19;0.80;;;0.50;;
15104;SDS011;7653;48.994;9.212;2023-10-31T02:16:13;0.50;;;0.30;;
15104;SDS011;7653;48.994;9.212;2023-10-31T02:18:50;2.03;;;0.70;;
15104;SDS011;7653;48.994;9.212;2023-10-31T02:21:50;1.23;;;0.60;;
15104;SDS011;7653;48.994;9.212;2023-10-31T02:24:37;3.87;;;0.60;;
15104;SDS011;7653;48.994;9.212;2023-10-31T02:27:07;1.87;;;0.50;;
15104;SDS011;7653;48.994;9.212;2023-10-31T02:32:53;1.63;;;0.53;;
15104;SDS011;7653;48.994;9.212;2023-10-31T02:38:57;1.87;;;0.70;;
15104;SDS011;7653;48.994;9.212;2023-10-31T02:44:40;0.53;;;0.50;;
15104;SDS011;7653;48.994;9.212;2023-10-31T02:47:36;1.20;;;0.37;;
15104;SDS011;7653;48.994;9.212;2023-10-31T03:03:52;0.97;;;0.30;;
15104;SDS011;7653;48.994;9.212;2023-10-31T03:07:05;2.30;;;0.60;;
15104;SDS011;7653;48.994;9.212;2023-10-31T03:12:55;0.30;;;0.30;;
15104;SDS011;7653;48.994;9.212;2023-10-31T03:26:28;0.33;;;0.30;;
15104;SDS011;7653;48.994;9.212;2023-10-31T03:45:37;0.80;;;0.60;;
15104;SDS011;7653;48.994;9.212;2023-10-31T04:02:49;2.77;;;0.67;;
15104;SDS011;7653;48.994;9.212;2023-10-31T04:09:29;0.50;;;0.50;;
15104;SDS011;7653;48.994;9.212;2023-10-31T04:12:23;1.20;;;0.50;;
15104;SDS011;7653;48.994;9.212;2023-10-31T04:15:09;0.40;;;0.30;;
15104;SDS011;7653;48.994;9.212;2023-10-31T04:21:11;1.30;;;0.50;;
15104;SDS011;7653;48.994;9.212;2023-10-31T04:24:14;0.50;;;0.50;;
15104;SDS011;7653;48.994;9.212;2023-10-31T04:27:24;3.80;;;0.40;;
15104;SDS011;7653;48.994;9.212;2023-10-31T04:37:57;1.70;;;0.50;;
15104;SDS011;7653;48.994;9.212;2023-10-31T04:47:41;0.47;;;0.40;;
15104;SDS011;7653;48.994;9.212;2023-10-31T04:53:31;0.70;;;0.47;;
15104;SDS011;7653;48.994;9.212;2023-10-31T04:56:11;0.10;;;0.10;;
15104;SDS011;7653;48.994;9.212;2023-10-31T05:02:47;1.30;;;0.70;;
15104;SDS011;7653;48.994;9.212;2023-10-31T05:05:54;1.10;;;0.40;;
15104;SDS011;7653;48.994;9.212;2023-10-31T05:09:00;0.87;;;0.40;;
15104;SDS011;7653;48.994;9.212;2023-10-31T05:19:16;0.80;;;0.73;;
15104;SDS011;7653;48.994;9.212;2023-10-31T05:22:06;1.17;;;0.40;;
15104;SDS011;7653;48.994;9.212;2023-10-31T05:28:00;0.43;;;0.20;;
15104;SDS011;7653;48.994;9.212;2023-10-31T05:31:21;4.87;;;0.50;;
15104;SDS011;7653;48.994;9.212;2023-10-31T05:34:42;0.50;;;0.50;;
15104;SDS011;7653;48.994;9.212;2023-10-31T05:44:23;0.73;;;0.30;;
15104;SDS011;7653;48.994;9.212;2023-10-31T05:47:19;0.43;;;0.40;;
15104;SDS011;7653;48.994;9.212;2023-10-31T05:50:07;1.50;;;0.50;;
15104;SDS011;7653;48.994;9.212;2023-10-31T05:53:11;0.50;;;0.50;;
15104;SDS011;7653;48.994;9.212;2023-10-31T05:59:35;0.43;;;0.43;;
15104;SDS011;7653;48.994;9.212;2023-10-31T06:02:28;1.90;;;0.43;;
15104;SDS011;7653;48.994;9.212;2023-10-31T06:04:57;0.70;;;0.40;;
15104;SDS011;7653;48.994;9.212;2023-10-31T06:10:56;0.40;;;0.40;;
15104;SDS011;7653;48.994;9.212;2023-10-31T06:17:14;1.27;;;0.40;;
15104;SDS011;7653;48.994;9.212;2023-10-31T06:26:48;1.20;;;0.43;;
15104;SDS011;7653;48.994;9.212;2023-10-31T06:29:33;0.90;;;0.40;;
15104;SDS011;7653;48.994;9.212;2023-10-31T06:32:43;0.70;;;0.50;;
15104;SDS011;7653;48.994;9.212;2023-10-31T06:41:49;0.67;;;0.50;;
15104;SDS011;7653;48.994;9.212;2023-10-31T06:48:13;0.30;;;0.30;;
15104;SDS011;7653;48.994;9.212;2023-10-31T06:54:47;3.70;;;0.73;;
15104;SDS011;7653;48.994;9.212;2023-10-31T07:00:44;1.10;;;0.60;;
15104;SDS011;7653;48.994;9.212;2023-10-31T07:03:54;2.83;;;0.70;;
15104;SDS011;7653;48.994;9.212;2023-10-31T07:07:14;2.57;;;0.70;;
15104;SDS011;7653;48.994;9.212;2023-10-31T07:10:15;4.43;;;1.00;;
15104;SDS011;7653;48.994;9.212;2023-10-31T07:13:35;3.47;;;0.93;;
15104;SDS011;7653;48.994;9.212;2023-10-31T07:19:32;4.20;;;0.70;;
15104;SDS011;7653;48.994;9.212;2023-10-31T07:22:41;1.83;;;0.90;;
15104;SDS011;7653;48.994;9.212;2023-10-31T07:25:12;2.07;;;0.80;;
15104;SDS011;7653;48.994;9.212;2023-10-31T07:27:44;0.83;;;0.67;;
15104;SDS011;7653;48.994;9.212;2023-10-31T07:30:12;0.83;;;0.80;;
15104;SDS011;7653;48.994;9.212;2023-10-31T07:32:37;1.80;;;0.70;;
15104;SDS011;7653;48.994;9.212;2023-10-31T07:35:06;1.07;;;0.60;;
15104;SDS011;7653;48.994;9.212;2023-10-31T07:37:32;0.60;;;0.60;;
15104;SDS011;7653;48.994;9.212;2023-10-31T07:40:26;2.37;;;0.70;;
15104;SDS011;7653;48.994;9.212;2023-10-31T07:42:52;1.47;;;0.43;;
15104;SDS011;7653;48.994;9.212;2023-10-31T07:45:18;2.23;;;0.70;;
15104;SDS011;7653;48.994;9.212;2023-10-31T07:47:44;1.10;;;0.33;;
15104;SDS011;7653;48.994;9.212;2023-10-31T07:50:09;2.83;;;0.67;;
15104;SDS011;7653;48.994;9.212;2023-10-31T07:52:35;1.70;;;0.47;;
15104;SDS011;7653;48.994;9.212;2023-10-31T07:55:01;0.93;;;0.40;;
15104;SDS011;7653;48.994;9.212;2023-10-31T07:57:26;1.33;;;0.50;;
15104;SDS011;7653;48.994;9.212;2023-10-31T07:59:52;1.40;;;0.60;;
15104;SDS011;7653;48.994;9.212;2023-10-31T08:02:17;1.17;;;1.00;;
15104;SDS011;7653;48.994;9.212;2023-10-31T08:04:43;1.13;;;1.03;;
15104;SDS011;7653;48.994;9.212;2023-10-31T08:07:09;1.33;;;0.70;;
15104;SDS011;7653;48.994;9.212;2023-10-31T08:09:34;0.80;;;0.80;;
15104;SDS011;7653;48.994;9.212;2023-10-31T08:12:00;0.70;;;0.70;;
15104;SDS011;7653;48.994;9.212;2023-10-31T08:14:25;2.00;;;0.83;;
15104;SDS011;7653;48.994;9.212;2023-10-31T08:16:51;1.83;;;0.80;;
15104;SDS011;7653;48.994;9.212;2023-10-31T08:19:16;1.63;;;0.90;;
15104;SDS011;7653;48.994;9.212;2023-10-31T08:21:42;0.93;;;0.70;;
15104;SDS011;7653;48.994;9.212;2023-10-31T08:24:08;2.67;;;0.73;;
15104;SDS011;7653;48.994;9.212;2023-10-31T08:26:34;1.80;;;0.70;;
15104;SDS011;7653;48.994;9.212;2023-10-31T08:29:00;0.80;;;0.80;;
15104;SDS011;7653;48.994;9.212;2023-10-31T08:31:25;0.93;;;0.80;;
15104;SDS011;7653;48.994;9.212;2023-10-31T08:33:51;2.20;;;0.90;;
15104;SDS011;7653;48.994;9.212;2023-10-31T08:36:16;3.17;;;0.83;;
15104;SDS011;7653;48.994;9.212;2023-10-31T08:38:42;1.23;;;0.63;;
15104;SDS011;7653;48.994;9.212;2023-10-31T08:41:08;0.97;;;0.60;;
15104;SDS011;7653;48.994;9.212;2023-10-31T08:43:33;2.23;;;0.60;;
15104;SDS011;7653;48.994;9.212;2023-10-31T08:45:59;1.50;;;0.83;;
15104;SDS011;7653;48.994;9.212;2023-10-31T08:48:24;2.30;;;0.80;;
15104;SDS011;7653;48.994;9.212;2023-10-31T08:50:51;2.03;;;0.70;;
15104;SDS011;7653;48.994;9.212;2023-10-31T08:53:16;1.17;;;0.60;;
15104;SDS011;7653;48.994;9.212;2023-10-31T08:55:44;1.90;;;0.80;;
15104;SDS011;7653;48.994;9.212;2023-10-31T08:58:13;0.70;;;0.60;;
15104;SDS011;7653;48.994;9.212;2023-10-31T09:00:39;2.40;;;0.70;;
15104;SDS011;7653;48.994;9.212;2023-10-31T09:03:08;0.97;;;0.60;;
15104;SDS011;7653;48.994;9.212;2023-10-31T09:05:34;0.93;;;0.63;;
15104;SDS011;7653;48.994;9.212;2023-10-31T09:08:00;1.53;;;0.70;;
15104;SDS011;7653;48.994;9.212;2023-10-31T09:10:25;2.83;;;0.80;;
15104;SDS011;7653;48.994;9.212;2023-10-31T09:12:51;2.37;;;0.87;;
15104;SDS011;7653;48.994;9.212;2023-10-31T09:15:17;5.23;;;1.10;;
15104;SDS011;7653;48.994;9.212;2023-10-31T09:17:44;1.93;;;0.87;;
15104;SDS011;7653;48.994;9.212;2023-10-31T09:20:09;2.87;;;1.10;;
15104;SDS011;7653;48.994;9.212;2023-10-31T09:22:36;3.43;;;0.83;;
15104;SDS011;7653;48.994;9.212;2023-10-31T09:25:02;2.37;;;0.80;;
15104;SDS011;7653;48.994;9.212;2023-10-31T09:27:28;2.20;;;0.70;;
15104;SDS011;7653;48.994;9.212;2023-10-31T09:29:54;4.13;;;0.83;;
15104;SDS011;7653;48.994;9.212;2023-10-31T09:32:20;2.27;;;0.97;;
15104;SDS011;7653;48.994;9.212;2023-10-31T09:34:45;1.83;;;1.00;;
15104;SDS011;7653;48.994;9.212;2023-10-31T09:37:11;2.27;;;0.80;;
15104;SDS011;7653;48.994;9.212;2023-10-31T09:39:37;4.57;;;0.73;;
15104;SDS011;7653;48.994;9.212;2023-10-31T09:42:03;2.97;;;1.00;;
15104;SDS011;7653;48.994;9.212;2023-10-31T09:44:29;3.13;;;0.73;;
15104;SDS011;7653;48.994;9.212;2023-10-31T09:46:54;1.57;;;0.80;;
15104;SDS011;7653;48.994;9.212;2023-10-31T09:49:21;3.20;;;0.83;;
15104;SDS011;7653;48.994;9.212;2023-10-31T09:51:47;4.80;;;1.40;;
15104;SDS011;7653;48.994;9.212;2023-10-31T09:54:14;2.77;;;1.07;;
15104;SDS011;7653;48.994;9.212;2023-10-31T09:56:41;1.30;;;0.50;;
15104;SDS011;7653;48.994;9.212;2023-10-31T09:59:08;2.23;;;0.90;;
15104;SDS011;7653;48.994;9.212;2023-10-31T10:01:34;2.57;;;1.00;;
15104;SDS011;7653;48.994;9.212;2023-10-31T10:04:00;1.23;;;0.70;;
15104;SDS011;7653;48.994;9.212;2023-10-31T10:06:27;2.03;;;0.77;;
15104;SDS011;7653;48.994;9.212;2023-10-31T10:08:52;3.07;;;0.90;;
15104;SDS011;7653;48.994;9.212;2023-10-31T10:11:20;2.40;;;0.90;;
15104;SDS011;7653;48.994;9.212;2023-10-31T10:13:46;2.43;;;0.90;;
15104;SDS011;7653;48.994;9.212;2023-10-31T10:16:12;1.63;;;0.87;;
15104;SDS011;7653;48.994;9.212;2023-10-31T10:18:38;4.60;;;1.37;;
15104;SDS011;7653;48.994;9.212;2023-10-31T10:21:07;1.87;;;0.83;;
15104;SDS011;7653;48.994;9.212;2023-10-31T10:23:33;0.63;;;0.43;;
15104;SDS011;7653;48.994;9.212;2023-10-31T10:25:59;3.90;;;1.13;;
15104;SDS011;7653;48.994;9.212;2023-10-31T10:28:26;1.70;;;0.87;;
15104;SDS011;7653;48.994;9.212;2023-10-31T10:30:54;4.70;;;0.90;;
15104;SDS011;7653;48.994;9.212;2023-10-31T10:33:20;1.80;;;0.80;;
15104;SDS011;7653;48.994;9.212;2023-10-31T10:35:47;2.83;;;0.80;;
15104;SDS011;7653;48.994;9.212;2023-10-31T10:38:13;5.73;;;0.97;;
15104;SDS011;7653;48.994;9.212;2023-10-31T10:40:41;2.50;;;0.63;;
15104;SDS011;7653;48.994;9.212;2023-10-31T10:43:26;5.13;;;0.60;;
15104;SDS011;7653;48.994;9.212;2023-10-31T10:45:54;3.47;;;1.00;;
15104;SDS011;7653;48.994;9.212;2023-10-31T10:48:21;5.27;;;1.60;;
15104;SDS011;7653;48.994;9.212;2023-10-31T10:50:50;3.60;;;1.00;;
15104;SDS011;7653;48.994;9.212;2023-10-31T10:53:23;5.10;;;1.20;;
15104;SDS011;7653;48.994;9.212;2023-10-31T10:55:55;2.17;;;0.63;;
15104;SDS011;7653;48.994;9.212;2023-10-31T11:00:52;3.40;;;1.20;;
15104;SDS011;7653;48.994;9.212;2023-10-31T11:03:19;5.00;;;1.70;;
15104;SDS011;7653;48.994;9.212;2023-10-31T11:05:46;7.10;;;1.57;;
15104;SDS011;7653;48.994;9.212;2023-10-31T11:08:12;4.00;;;1.13;;
15104;SDS011;7653;48.994;9.212;2023-10-31T11:10:39;2.00;;;1.00;;
15104;SDS011;7653;48.994;9.212;2023-10-31T11:13:05;2.13;;;0.97;;
15104;SDS011;7653;48.994;9.212;2023-10-31T11:15:31;2.67;;;0.77;;
15104;SDS011;7653;48.994;9.212;2023-10-31T11:17:57;1.43;;;0.77;;
15104;SDS011;7653;48.994;9.212;2023-10-31T11:20:23;2.67;;;0.97;;
15104;SDS011;7653;48.994;9.212;2023-10-31T11:22:54;1.27;;;0.70;;
15104;SDS011;7653;48.994;9.212;2023-10-31T11:25:25;3.43;;;1.10;;
15104;SDS011;7653;48.994;9.212;2023-10-31T11:27:51;4.87;;;0.90;;
15104;SDS011;7653;48.994;9.212;2023-10-31T11:30:21;1.57;;;0.70;;
15104;SDS011;7653;48.994;9.212;2023-10-31T11:32:47;2.37;;;0.87;;
15104;SDS011;7653;48.994;9.212;2023-10-31T11:35:16;4.00;;;0.70;;
15104;SDS011;7653;48.994;9.212;2023-10-31T11:37:43;3.47;;;0.80;;
15104;SDS011;7653;48.994;9.212;2023-10-31T11:42:41;1.80;;;0.73;;
15104;SDS011;7653;48.994;9.212;2023-10-31T11:45:09;1.97;;;0.73;;
15104;SDS011;7653;48.994;9.212;2023-10-31T11:47:48;5.40;;;1.23;;
15104;SDS011;7653;48.994;9.212;2023-10-31T11:50:15;5.43;;;2.70;;
15104;SDS011;7653;48.994;9.212;2023-10-31T11:52:41;2.33;;;1.10;;
15104;SDS011;7653;48.994;9.212;2023-10-31T11:55:11;2.37;;;0.70;;
15104;SDS011;7653;48.994;9.212;2023-10-31T11:57:38;2.07;;;0.53;;
15104;SDS011;7653;48.994;9.212;2023-10-31T12:00:04;2.23;;;0.60;;
15104;SDS011;7653;48.994;9.212;2023-10-31T12:02:32;3.13;;;0.70;;
15104;SDS011;7653;48.994;9.212;2023-10-31T12:05:08;4.57;;;0.80;;
15104;SDS011;7653;48.994;9.212;2023-10-31T12:07:44;3.57;;;0.60;;
15104;SDS011;7653;48.994;9.212;2023-10-31T12:10:11;2.43;;;0.60;;
15104;SDS011;7653;48.994;9.212;2023-10-31T12:12:37;2.73;;;0.70;;
15104;SDS011;7653;48.994;9.212;2023-10-31T12:15:07;1.27;;;0.70;;
15104;SDS011;7653;48.994;9.212;2023-10-31T12:17:33;1.03;;;0.50;;
15104;SDS011;7653;48.994;9.212;2023-10-31T12:20:03;3.70;;;1.13;;
15104;SDS011;7653;48.994;9.212;2023-10-31T12:22:33;5.87;;;2.37;;
15104;SDS011;7653;48.994;9.212;2023-10-31T12:25:02;1.07;;;0.70;;
15104;SDS011;7653;48.994;9.212;2023-10-31T12:27:48;2.93;;;1.43;;
15104;SDS011;7653;48.994;9.212;2023-10-31T12:30:19;1.27;;;0.33;;
15104;SDS011;7653;48.994;9.212;2023-10-31T12:32:52;1.50;;;0.97;;
15104;SDS011;7653;48.994;9.212;2023-10-31T12:35:20;1.83;;;0.67;;
15104;SDS011;7653;48.994;9.212;2023-10-31T12:37:48;3.03;;;0.90;;
15104;SDS011;7653;48.994;9.212;2023-10-31T12:40:18;2.90;;;1.13;;
15104;SDS011;7653;48.994;9.212;2023-10-31T12:42:45;3.90;;;3.20;;
15104;SDS011;7653;48.994;9.212;2023-10-31T12:45:12;2.97;;;1.60;;
15104;SDS011;7653;48.994;9.212;2023-10-31T12:47:39;4.13;;;1.43;;
15104;SDS011;7653;48.994;9.212;2023-10-31T12:50:15;2.67;;;1.40;;
15104;SDS011;7653;48.994;9.212;2023-10-31T12:52:51;5.40;;;1.97;;
15104;SDS011;7653;48.994;9.212;2023-10-31T12:55:19;6.53;;;2.37;;
15104;SDS011;7653;48.994;9.212;2023-10-31T12:57:55;5.37;;;2.23;;
15104;SDS011;7653;48.994;9.212;2023-10-31T13:00:25;3.37;;;1.30;;
15104;SDS011;7653;48.994;9.212;2023-10-31T13:03:00;3.13;;;1.43;;
15104;SDS011;7653;48.994;9.212;2023-10-31T13:05:27;3.53;;;1.40;;
15104;SDS011;7653;48.994;9.212;2023-10-31T13:07:54;2.43;;;1.47;;
15104;SDS011;7653;48.994;9.212;2023-10-31T13:10:22;3.00;;;1.20;;
15104;SDS011;7653;48.994;9.212;2023-10-31T13:12:49;2.70;;;1.40;;
15104;SDS011;7653;48.994;9.212;2023-10-31T13:15:16;1.90;;;1.70;;
15104;SDS011;7653;48.994;9.212;2023-10-31T13:17:45;4.33;;;1.57;;
15104;SDS011;7653;48.994;9.212;2023-10-31T13:20:12;2.17;;;1.60;;
15104;SDS011;7653;48.994;9.212;2023-10-31T13:22:39;3.20;;;1.30;;
15104;SDS011;7653;48.994;9.212;2023-10-31T13:25:06;2.50;;;1.70;;
15104;SDS011;7653;48.994;9.212;2023-10-31T13:27:35;3.70;;;2.03;;
15104;SDS011;7653;48.994;9.212;2023-10-31T13:30:09;3.60;;;1.73;;
15104;SDS011;7653;48.994;9.212;2023-10-31T13:32:39;1.13;;;1.03;;
15104;SDS011;7653;48.994;9.212;2023-10-31T13:35:06;2.83;;;2.10;;
15104;SDS011;7653;48.994;9.212;2023-10-31T13:37:35;3.37;;;1.73;;
15104;SDS011;7653;48.994;9.212;2023-10-31T13:40:02;3.63;;;2.00;;
15104;SDS011;7653;48.994;9.212;2023-10-31T13:42:28;3.93;;;2.30;;
15104;SDS011;7653;48.994;9.212;2023-10-31T13:44:54;4.17;;;1.80;;
15104;SDS011;7653;48.994;9.212;2023-10-31T13:47:20;3.97;;;2.27;;
15104;SDS011;7653;48.994;9.212;2023-10-31T13:49:46;2.23;;;1.90;;
15104;SDS011;7653;48.994;9.212;2023-10-31T13:52:12;7.30;;;2.20;;
15104;SDS011;7653;48.994;9.212;2023-10-31T13:54:37;3.60;;;2.00;;
15104;SDS011;7653;48.994;9.212;2023-10-31T13:57:03;4.50;;;1.80;;
15104;SDS011;7653;48.994;9.212;2023-10-31T13:59:29;2.93;;;1.70;;
15104;SDS011;7653;48.994;9.212;2023-10-31T14:01:55;6.70;;;2.30;;
15104;SDS011;7653;48.994;9.212;2023-10-31T14:04:20;5.13;;;1.70;;
15104;SDS011;7653;48.994;9.212;2023-10-31T14:06:46;2.10;;;1.63;;
15104;SDS011;7653;48.994;9.212;2023-10-31T14:09:12;6.07;;;2.20;;
15104;SDS011;7653;48.994;9.212;2023-10-31T14:11:38;2.30;;;1.57;;
15104;SDS011;7653;48.994;9.212;2023-10-31T14:14:05;3.73;;;1.67;;
15104;SDS011;7653;48.994;9.212;2023-10-31T14:16:32;3.63;;;2.07;;
15104;SDS011;7653;48.994;9.212;2023-10-31T14:18:58;4.23;;;1.50;;
15104;SDS011;7653;48.994;9.212;2023-10-31T14:21:24;1.90;;;0.53;;
15104;SDS011;7653;48.994;9.212;2023-10-31T14:23:53;2.30;;;1.00;;
15104;SDS011;7653;48.994;9.212;2023-10-31T14:26:23;2.70;;;1.13;;
15104;SDS011;7653;48.994;9.212;2023-10-31T14:28:49;1.00;;;0.70;;
15104;SDS011;7653;48.994;9.212;2023-10-31T14:31:15;0.77;;;0.50;;
15104;SDS011;7653;48.994;9.212;2023-10-31T14:33:41;1.77;;;0.80;;
15104;SDS011;7653;48.994;9.212;2023-10-31T14:36:08;1.50;;;0.50;;
15104;SDS011;7653;48.994;9.212;2023-10-31T14:38:36;2.00;;;0.90;;
15104;SDS011;7653;48.994;9.212;2023-10-31T14:41:02;1.50;;;0.90;;
15104;SDS011;7653;48.994;9.212;2023-10-31T14:43:28;0.83;;;0.60;;
15104;SDS011;7653;48.994;9.212;2023-10-31T14:45:54;1.90;;;0.70;;
15104;SDS011;7653;48.994;9.212;2023-10-31T14:48:20;1.77;;;0.90;;
15104;SDS011;7653;48.994;9.212;2023-10-31T14:50:46;1.03;;;0.90;;
15104;SDS011;7653;48.994;9.212;2023-10-31T14:53:13;2.10;;;0.70;;
15104;SDS011;7653;48.994;9.212;2023-10-31T14:55:41;1.43;;;0.60;;
15104;SDS011;7653;48.994;9.212;2023-10-31T14:58:07;1.00;;;0.30;;
15104;SDS011;7653;48.994;9.212;2023-10-31T15:00:36;1.87;;;0.80;;
15104;SDS011;7653;48.994;9.212;2023-10-31T15:03:02;2.60;;;0.87;;
15104;SDS011;7653;48.994;9.212;2023-10-31T15:05:28;1.27;;;0.50;;
15104;SDS011;7653;48.994;9.212;2023-10-31T15:07:54;1.23;;;0.67;;
15104;SDS011;7653;48.994;9.212;2023-10-31T15:10:20;0.97;;;0.80;;
15104;SDS011;7653;48.994;9.212;2023-10-31T15:12:46;1.07;;;0.60;;
15104;SDS011;7653;48.994;9.212;2023-10-31T15:15:24;1.20;;;0.80;;
15104;SDS011;7653;48.994;9.212;2023-10-31T15:17:50;3.60;;;0.93;;
15104;SDS011;7653;48.994;9.212;2023-10-31T15:20:19;3.00;;;0.73;;
15104;SDS011;7653;48.994;9.212;2023-10-31T15:22:44;2.23;;;0.80;;
15104;SDS011;7653;48.994;9.212;2023-10-31T15:25:11;1.47;;;0.80;;
15104;SDS011;7653;48.994;9.212;2023-10-31T15:27:37;1.50;;;0.80;;
15104;SDS011;7653;48.994;9.212;2023-10-31T15:30:04;1.27;;;0.70;;
15104;SDS011;7653;48.994;9.212;2023-10-31T15:32:36;2.00;;;1.13;;
15104;SDS011;7653;48.994;9.212;2023-10-31T15:35:06;1.83;;;0.70;;
15104;SDS011;7653;48.994;9.212;2023-10-31T15:37:33;1.33;;;0.70;;
15104;SDS011;7653;48.994;9.212;2023-10-31T15:39:59;4.40;;;0.90;;
15104;SDS011;7653;48.994;9.212;2023-10-31T15:42:25;1.20;;;0.90;;
15104;SDS011;7653;48.994;9.212;2023-10-31T15:44:53;3.20;;;1.03;;
15104;SDS011;7653;48.994;9.212;2023-10-31T15:47:20;1.57;;;0.80;;
15104;SDS011;7653;48.994;9.212;2023-10-31T15:49:47;0.93;;;0.60;;
15104;SDS011;7653;48.994;9.212;2023-10-31T15:52:12;2.73;;;0.73;;
15104;SDS011;7653;48.994;9.212;2023-10-31T15:54:38;3.33;;;0.87;;
15104;SDS011;7653;48.994;9.212;2023-10-31T15:57:04;1.27;;;0.70;;
15104;SDS011;7653;48.994;9.212;2023-10-31T15:59:30;1.17;;;0.70;;
15104;SDS011;7653;48.994;9.212;2023-10-31T16:01:56;1.37;;;0.80;;
15104;SDS011;7653;48.994;9.212;2023-10-31T16:04:21;1.03;;;0.63;;
15104;SDS011;7653;48.994;9.212;2023-10-31T16:06:48;1.43;;;0.70;;
15104;SDS011;7653;48.994;9.212;2023-10-31T16:09:14;1.43;;;0.90;;
15104;SDS011;7653;48.994;9.212;2023-10-31T16:11:40;0.93;;;0.60;;
15104;SDS011;7653;48.994;9.212;2023-10-31T16:14:05;1.87;;;0.80;;
15104;SDS011;7653;48.994;9.212;2023-10-31T16:16:32;3.33;;;1.00;;
15104;SDS011;7653;48.994;9.212;2023-10-31T16:18:57;3.03;;;0.93;;
15104;SDS011;7653;48.994;9.212;2023-10-31T16:21:23;1.57;;;0.80;;
15104;SDS011;7653;48.994;9.212;2023-10-31T16:23:49;0.63;;;0.60;;
15104;SDS011;7653;48.994;9.212;2023-10-31T16:26:18;1.80;;;0.73;;
15104;SDS011;7653;48.994;9.212;2023-10-31T16:28:44;1.67;;;0.80;;
15104;SDS011;7653;48.994;9.212;2023-10-31T16:31:11;1.77;;;0.80;;
15104;SDS011;7653;48.994;9.212;2023-10-31T16:33:38;1.33;;;0.70;;
15104;SDS011;7653;48.994;9.212;2023-10-31T16:36:04;1.77;;;0.90;;
15104;SDS011;7653;48.994;9.212;2023-10-31T16:38:31;2.30;;;0.73;;
15104;SDS011;7653;48.994;9.212;2023-10-31T16:40:58;2.20;;;0.90;;
15104;SDS011;7653;48.994;9.212;2023-10-31T16:43:27;1.70;;;0.87;;
15104;SDS011;7653;48.994;9.212;2023-10-31T16:45:52;1.97;;;0.90;;
15104;SDS011;7653;48.994;9.212;2023-10-31T16:48:18;1.20;;;0.77;;
15104;SDS011;7653;48.994;9.212;2023-10-31T16:50:44;1.37;;;0.70;;
15104;SDS011;7653;48.994;9.212;2023-10-31T16:53:09;2.10;;;0.87;;
15104;SDS011;7653;48.994;9.212;2023-10-31T16:55:35;4.03;;;1.10;;
15104;SDS011;7653;48.994;9.212;2023-10-31T16:58:01;0.70;;;0.70;;
15104;SDS011;7653;48.994;9.212;2023-10-31T17:00:29;1.67;;;0.73;;
15104;SDS011;7653;48.994;9.212;2023-10-31T17:02:55;1.10;;;0.80;;
15104;SDS011;7653;48.994;9.212;2023-10-31T17:05:21;1.20;;;0.90;;
15104;SDS011;7653;48.994;9.212;2023-10-31T17:07:46;4.27;;;1.37;;
15104;SDS011;7653;48.994;9.212;2023-10-31T17:10:12;1.53;;;1.00;;
15104;SDS011;7653;48.994;9.212;2023-10-31T17:12:38;1.70;;;1.40;;
15104;SDS011;7653;48.994;9.212;2023-10-31T17:15:04;2.33;;;1.50;;
15104;SDS011;7653;48.994;9.212;2023-10-31T17:17:32;2.57;;;1.40;;
15104;SDS011;7653;48.994;9.212;2023-10-31T17:19:58;1.80;;;1.27;;
15104;SDS011;7653;48.994;9.212;2023-10-31T17:22:23;1.27;;;1.10;;
15104;SDS011;7653;48.994;9.212;2023-10-31T17:24:49;1.17;;;1.00;;
15104;SDS011;7653;48.994;9.212;2023-10-31T17:27:15;1.47;;;0.90;;
15104;SDS011;7653;48.994;9.212;2023-10-31T17:29:41;2.60;;;1.00;;
15104;SDS011;7653;48.994;9.212;2023-10-31T17:32:08;1.17;;;0.97;;
15104;SDS011;7653;48.994;9.212;2023-10-31T17:34:35;2.80;;;1.63;;
15104;SDS011;7653;48.994;9.212;2023-10-31T17:37:01;1.53;;;1.20;;
15104;SDS011;7653;48.994;9.212;2023-10-31T17:39:27;2.40;;;1.30;;
15104;SDS011;7653;48.994;9.212;2023-10-31T17:41:53;1.30;;;1.00;;
15104;SDS011;7653;48.994;9.212;2023-10-31T17:44:19;1.60;;;1.33;;
15104;SDS011;7653;48.994;9.212;2023-10-31T17:46:44;3.10;;;1.50;;
15104;SDS011;7653;48.994;9.212;2023-10-31T17:49:10;1.97;;;1.30;;
15104;SDS011;7653;48.994;9.212;2023-10-31T17:51:42;2.43;;;1.30;;
15104;SDS011;7653;48.994;9.212;2023-10-31T17:54:08;1.87;;;1.30;;
15104;SDS011;7653;48.994;9.212;2023-10-31T17:56:35;2.10;;;1.50;;
15104;SDS011;7653;48.994;9.212;2023-10-31T17:59:01;2.07;;;1.30;;
15104;SDS011;7653;48.994;9.212;2023-10-31T18:01:27;1.53;;;0.73;;
15104;SDS011;7653;48.994;9.212;2023-10-31T18:03:52;4.20;;;1.33;;
15104;SDS011;7653;48.994;9.212;2023-10-31T18:06:18;3.13;;;1.20;;
15104;SDS011;7653;48.994;9.212;2023-10-31T18:08:43;2.43;;;1.40;;
15104;SDS011;7653;48.994;9.212;2023-10-31T18:11:09;1.73;;;1.30;;
15104;SDS011;7653;48.994;9.212;2023-10-31T18:13:35;2.53;;;1.60;;
15104;SDS011;7653;48.994;9.212;2023-10-31T18:16:00;4.10;;;2.13;;
15104;SDS011;7653;48.994;9.212;2023-10-31T18:18:27;2.33;;;2.13;;
15104;SDS011;7653;48.994;9.212;2023-10-31T18:20:52;3.57;;;2.30;;
15104;SDS011;7653;48.994;9.212;2023-10-31T18:23:19;3.03;;;1.77;;
15104;SDS011;7653;48.994;9.212;2023-10-31T18:25:45;2.30;;;1.47;;
15104;SDS011;7653;48.994;9.212;2023-10-31T18:28:11;1.80;;;1.20;;
15104;SDS011;7653;48.994;9.212;2023-10-31T18:30:37;0.90;;;0.90;;
15104;SDS011;7653;48.994;9.212;2023-10-31T18:33:03;2.03;;;1.23;;
15104;SDS011;7653;48.994;9.212;2023-10-31T18:35:29;2.67;;;1.10;;
15104;SDS011;7653;48.994;9.212;2023-10-31T18:37:55;1.43;;;0.90;;
15104;SDS011;7653;48.994;9.212;2023-10-31T18:40:20;1.40;;;0.97;;
15104;SDS011;7653;48.994;9.212;2023-10-31T18:42:47;1.63;;;1.27;;
15104;SDS011;7653;48.994;9.212;2023-10-31T18:45:12;2.53;;;1.20;;
15104;SDS011;7653;48.994;9.212;2023-10-31T18:47:40;2.17;;;1.10;;
15104;SDS011;7653;48.994;9.212;2023-10-31T18:50:07;2.67;;;1.60;;
15104;SDS011;7653;48.994;9.212;2023-10-31T18:52:33;2.80;;;1.73;;
15104;SDS011;7653;48.994;9.212;2023-10-31T18:54:58;2.07;;;1.70;;
15104;SDS011;7653;48.994;9.212;2023-10-31T18:57:25;2.70;;;1.50;;
15104;SDS011;7653;48.994;9.212;2023-10-31T18:59:51;2.87;;;1.90;;
15104;SDS011;7653;48.994;9.212;2023-10-31T19:02:17;3.63;;;1.97;;
15104;SDS011;7653;48.994;9.212;2023-10-31T19:04:42;2.17;;;1.93;;
15104;SDS011;7653;48.994;9.212;2023-10-31T19:07:08;4.23;;;2.20;;
15104;SDS011;7653;48.994;9.212;2023-10-31T19:09:34;3.97;;;2.07;;